Time;durP1;ratioP1;P1;durP2;ratioP2;P2;SDS_P1;SDS_P2;PMS_P1;PMS_P2;Temp;Humidity;BMP_temperature;BMP_pressure;BME280_temperature;BME280_humidity;BME280_pressure;Samples;Min_cycle;Max_cycle;Signal;HPM_P1;HPM_P2
2023/07/17 00:01:33;;;;;;;5.25;2.85;;;17.70;7.10;;;;;;5015753;28;20438;-64
2023/07/17 00:03:59;;;;;;;3.30;2.00;;;17.10;1.00;;;;;;5016359;28;20058;-64
2023/07/17 00:06:24;;;;;;;4.57;2.42;;;16.80;1.00;;;;;;5014983;28;20081;-64
2023/07/17 00:08:50;;;;;;;4.05;2.30;;;16.80;1.00;;;;;;5016175;28;20398;-64
2023/07/17 00:11:16;;;;;;;5.43;2.38;;;16.80;1.00;;;;;;5016529;28;20496;-63
2023/07/17 00:13:41;;;;;;;5.00;2.65;;;16.80;1.00;;;;;;5016125;28;20120;-64
2023/07/17 00:16:07;;;;;;;6.38;2.28;;;17.30;99.90;;;;;;5016319;28;20042;-64
2023/07/17 00:18:34;;;;;;;4.03;2.20;;;16.80;99.90;;;;;;5016238;28;20038;-64
2023/07/17 00:21:01;;;;;;;4.93;2.67;;;16.80;99.90;;;;;;5016356;28;20073;-63
2023/07/17 00:23:27;;;;;;;4.53;2.42;;;16.70;78.70;;;;;;5016330;28;20033;-64
2023/07/17 00:25:52;;;;;;;3.72;1.80;;;18.20;1.00;;;;;;5014736;28;20115;-63
2023/07/17 00:28:18;;;;;;;3.72;2.10;;;16.60;99.90;;;;;;5015958;28;20045;-64
2023/07/17 00:30:44;;;;;;;8.38;2.63;;;16.70;99.90;;;;;;5016209;28;20034;-64
2023/07/17 00:33:09;;;;;;;7.40;2.20;;;16.70;99.90;;;;;;5016112;28;20041;-63
2023/07/17 00:35:35;;;;;;;5.93;2.65;;;16.70;99.90;;;;;;5016128;28;20486;-63
2023/07/17 00:38:01;;;;;;;4.13;2.25;;;16.80;63.10;;;;;;5014518;28;20081;-63
2023/07/17 00:40:27;;;;;;;4.57;2.17;;;16.80;98.60;;;;;;5016058;28;20398;-63
2023/07/17 00:42:59;;;;;;;3.33;1.90;;;16.80;99.90;;;;;;5015642;28;20044;-64
2023/07/17 00:45:31;;;;;;;4.22;2.13;;;16.70;99.90;;;;;;5015831;28;20088;-64
2023/07/17 00:47:57;;;;;;;7.97;2.10;;;17.10;99.90;;;;;;5015916;28;20061;-63
2023/07/17 00:50:24;;;;;;;5.50;1.95;;;16.90;1.00;;;;;;5015863;28;20048;-63
2023/07/17 00:52:49;;;;;;;4.80;2.10;;;16.70;99.90;;;;;;5015838;28;20513;-63
2023/07/17 00:55:16;;;;;;;5.65;1.85;;;16.60;99.90;;;;;;5015684;28;20049;-63
2023/07/17 00:57:42;;;;;;;3.33;1.75;;;16.70;99.90;;;;;;5015644;28;20049;-63
2023/07/17 01:00:10;;;;;;;3.30;1.77;;;17.20;60.00;;;;;;5015377;28;20544;-64
2023/07/17 01:02:40;;;;;;;6.97;2.03;;;16.60;99.90;;;;;;5015428;28;20089;-63
2023/07/17 01:05:06;;;;;;;5.00;2.38;;;16.50;99.90;;;;;;5015175;28;20157;-63
2023/07/17 01:07:31;;;;;;;6.82;2.33;;;17.40;38.30;;;;;;5015494;28;20073;-63
2023/07/17 01:09:57;;;;;;;4.07;1.60;;;16.80;1.00;;;;;;5015412;28;20477;-63
2023/07/17 01:12:23;;;;;;;8.07;2.00;;;16.40;1.00;;;;;;5014510;28;20117;-63
2023/07/17 01:14:49;;;;;;;4.60;1.85;;;16.40;99.90;;;;;;5015465;28;20049;-63
2023/07/17 01:17:14;;;;;;;3.85;1.30;;;16.20;99.90;;;;;;5015313;28;20034;-63
2023/07/17 01:19:40;;;;;;;6.57;2.03;;;16.30;44.50;;;;;;5014910;28;20044;-63
2023/07/17 01:22:15;;;;;;;4.88;1.77;;;16.60;1.00;;;;;;5015214;28;20095;-63
2023/07/17 01:24:40;;;;;;;4.72;1.48;;;16.20;59.00;;;;;;5015160;28;20053;-64
2023/07/17 01:27:06;;;;;;;7.07;1.63;;;16.20;1.00;;;;;;5015142;28;20375;-63
2023/07/17 01:29:32;;;;;;;7.05;1.88;;;16.20;99.90;;;;;;5015065;28;20038;-63
2023/07/17 01:31:57;;;;;;;6.72;1.75;;;15.70;99.90;;;;;;5014756;28;20038;-63
2023/07/17 01:34:23;;;;;;;4.90;1.77;;;15.90;1.00;;;;;;5014999;28;20037;-63
2023/07/17 01:36:48;;;;;;;2.90;1.30;;;15.80;99.90;;;;;;5014682;28;20124;-63
2023/07/17 01:39:14;;;;;;;3.33;1.63;;;16.00;99.90;;;;;;5014884;28;20038;-63
2023/07/17 01:41:40;;;;;;;2.85;1.15;;;16.00;99.90;;;;;;5014881;28;20045;-63
2023/07/17 01:44:05;;;;;;;3.97;1.33;;;16.70;99.90;;;;;;5014759;28;20045;-63
2023/07/17 01:46:31;;;;;;;5.15;1.63;;;15.90;8.00;;;;;;5014723;28;20440;-63
2023/07/17 01:48:56;;;;;;;4.88;1.48;;;15.90;1.00;;;;;;5014736;28;20037;-63
2023/07/17 01:51:22;;;;;;;4.65;1.70;;;15.80;99.90;;;;;;5013476;28;20170;-63
2023/07/17 01:53:47;;;;;;;2.28;1.48;;;15.70;57.20;;;;;;5014383;28;20056;-63
2023/07/17 01:56:13;;;;;;;3.45;1.63;;;15.80;29.10;;;;;;5014602;28;20048;-63
2023/07/17 01:58:39;;;;;;;3.75;1.88;;;15.60;99.90;;;;;;5014226;28;20524;-63
2023/07/17 02:01:04;;;;;;;4.60;1.77;;;15.70;99.90;;;;;;5014715;28;20033;-62
2023/07/17 02:03:31;;;;;;;3.58;1.48;;;15.70;99.90;;;;;;5014100;28;20085;-61
2023/07/17 02:05:57;;;;;;;4.18;1.90;;;15.70;99.90;;;;;;5045734;22;20084;-64
2023/07/17 02:08:22;;;;;;;5.63;1.80;;;15.50;99.90;;;;;;5032983;28;20446;-64
2023/07/17 02:10:51;;;;;;;3.63;1.60;;;15.70;99.90;;;;;;5034129;28;20117;-64
2023/07/17 02:13:16;;;;;;;5.20;1.38;;;15.70;99.90;;;;;;5032502;28;20099;-64
2023/07/17 02:15:42;;;;;;;3.58;1.52;;;15.70;93.00;;;;;;5033920;28;20037;-64
2023/07/17 02:18:08;;;;;;;4.90;1.83;;;15.70;99.90;;;;;;5033693;28;20446;-64
2023/07/17 02:20:33;;;;;;;5.68;1.77;;;15.70;1.00;;;;;;5034195;28;20041;-64
2023/07/17 02:22:59;;;;;;;4.63;1.75;;;15.70;99.90;;;;;;5032506;28;20045;-65
2023/07/17 02:25:24;;;;;;;3.60;1.50;;;15.70;99.90;;;;;;5033715;28;20077;-64
2023/07/17 02:27:50;;;;;;;4.38;1.88;;;15.50;72.30;;;;;;5033480;28;20143;-64
2023/07/17 02:30:16;;;;;;;4.45;1.63;;;15.50;99.90;;;;;;5032182;28;20045;-64
2023/07/17 02:32:41;;;;;;;5.13;1.92;;;16.10;99.90;;;;;;5033791;28;20034;-66
2023/07/17 02:35:08;;;;;;;6.20;1.60;;;15.60;99.90;;;;;;5033664;28;20132;-67
2023/07/17 02:37:34;;;;;;;4.97;1.60;;;15.70;99.90;;;;;;5033420;28;20051;-66
2023/07/17 02:40:00;;;;;;;3.20;1.67;;;15.70;99.90;;;;;;5033629;28;20038;-66
2023/07/17 02:42:25;;;;;;;6.25;1.73;;;15.70;1.00;;;;;;5032292;28;20524;-66
2023/07/17 02:44:51;;;;;;;6.25;1.73;;;15.70;1.00;;;;;;5033437;28;20113;-66
2023/07/17 02:47:17;;;;;;;5.93;1.52;;;15.60;1.00;;;;;;5031830;28;20558;-66
2023/07/17 02:49:44;;;;;;;6.65;1.85;;;15.60;1.00;;;;;;5033454;28;20376;-66
2023/07/17 02:52:10;;;;;;;2.60;1.55;;;15.60;99.90;;;;;;5033418;28;20041;-66
2023/07/17 02:54:37;;;;;;;6.60;1.60;;;15.80;99.90;;;;;;5033357;28;20033;-66
2023/07/17 02:57:04;;;;;;;6.80;1.85;;;15.70;1.00;;;;;;5032978;28;20515;-66
2023/07/17 02:59:30;;;;;;;10.73;2.55;;;15.60;99.90;;;;;;5032992;28;20071;-66
2023/07/17 03:01:55;;;;;;;4.65;1.65;;;16.00;1.00;;;;;;5033234;28;20044;-66
2023/07/17 03:04:21;;;;;;;4.18;1.63;;;15.50;99.90;;;;;;5032769;28;20052;-67
2023/07/17 03:06:48;;;;;;;7.15;2.08;;;15.50;99.90;;;;;;5033066;28;20041;-66
2023/07/17 03:09:13;;;;;;;3.97;1.80;;;15.50;3.90;;;;;;5033116;28;20500;-66
2023/07/17 03:11:39;;;;;;;4.75;1.50;;;15.40;1.00;;;;;;5033061;28;20033;-66
2023/07/17 03:14:04;;;;;;;3.55;1.48;;;15.40;87.50;;;;;;5031894;28;20440;-66
2023/07/17 03:16:30;;;;;;;4.55;1.45;;;15.40;99.90;;;;;;5033041;28;20054;-66
2023/07/17 03:18:55;;;;;;;3.70;1.70;;;15.40;99.90;;;;;;5032638;28;20124;-66
2023/07/17 03:21:22;;;;;;;2.85;1.48;;;15.40;99.90;;;;;;5032987;28;20045;-67
2023/07/17 03:23:48;;;;;;;4.35;1.45;;;16.30;1.00;;;;;;5033031;28;20045;-66
2023/07/17 03:26:14;;;;;;;7.70;1.90;;;15.40;99.90;;;;;;5032903;28;20087;-66
2023/07/17 03:28:39;;;;;;;5.80;1.83;;;15.40;1.00;;;;;;5031382;28;20037;-66
2023/07/17 03:31:07;;;;;;;7.10;2.05;;;15.80;1.00;;;;;;5032890;28;20550;-66
2023/07/17 03:33:33;;;;;;;4.60;1.88;;;15.40;99.90;;;;;;5032926;28;20047;-67
2023/07/17 03:35:59;;;;;;;9.13;2.13;;;15.30;1.00;;;;;;5034662;28;20056;-66
2023/07/17 03:38:25;;;;;;;4.30;1.75;;;15.30;99.90;;;;;;5036606;28;20041;-66
2023/07/17 03:40:51;;;;;;;7.95;2.28;;;15.20;99.90;;;;;;5036666;28;20037;-66
2023/07/17 03:43:16;;;;;;;10.40;2.00;;;15.40;99.90;;;;;;5018842;28;20076;-66
2023/07/17 03:45:42;;;;;;;4.22;1.77;;;15.30;51.40;;;;;;5036816;28;20504;-66
2023/07/17 03:48:07;;;;;;;3.92;1.75;;;15.20;99.90;;;;;;5036737;28;20094;-66
2023/07/17 03:50:33;;;;;;;7.10;2.30;;;15.30;1.00;;;;;;5036529;28;20073;-66
2023/07/17 03:52:58;;;;;;;5.75;1.75;;;15.30;99.90;;;;;;5036695;28;20041;-67
2023/07/17 03:55:24;;;;;;;4.75;1.80;;;15.80;1.00;;;;;;5035394;28;20508;-66
2023/07/17 03:57:49;;;;;;;4.43;1.90;;;15.70;1.00;;;;;;5036592;28;20038;-66
2023/07/17 04:00:15;;;;;;;5.32;1.95;;;15.30;99.90;;;;;;5036567;28;20073;-66
2023/07/17 04:02:42;;;;;;;4.70;1.77;;;15.30;1.00;;;;;;5036557;28;20048;-66
2023/07/17 04:05:08;;;;;;;7.28;1.75;;;15.30;1.00;;;;;;5036166;28;20055;-66
2023/07/17 04:07:34;;;;;;;4.07;1.85;;;15.30;99.90;;;;;;5036548;28;20037;-66
2023/07/17 04:09:59;;;;;;;5.07;1.80;;;15.20;97.50;;;;;;5036342;28;20041;-66
2023/07/17 04:12:25;;;;;;;4.32;2.00;;;15.30;99.90;;;;;;5035151;28;20118;-67
2023/07/17 04:14:50;;;;;;;5.38;2.13;;;15.30;99.90;;;;;;5036330;28;20392;-67
2023/07/17 04:17:16;;;;;;;8.80;2.35;;;15.30;99.90;;;;;;5035039;28;20090;-66
2023/07/17 04:19:42;;;;;;;4.28;1.77;;;15.30;99.90;;;;;;5036250;28;20038;-66
2023/07/17 04:22:07;;;;;;;4.05;1.70;;;15.30;99.90;;;;;;5035828;28;20118;-66
2023/07/17 04:24:34;;;;;;;6.88;2.10;;;15.30;99.90;;;;;;5034867;28;20038;-66
2023/07/17 04:27:00;;;;;;;6.50;2.03;;;15.30;99.90;;;;;;5036091;28;20052;-66
2023/07/17 04:29:25;;;;;;;4.72;1.98;;;15.40;1.00;;;;;;5035662;28;20041;-66
2023/07/17 04:31:51;;;;;;;5.78;2.42;;;15.40;99.90;;;;;;5035984;28;20038;-67
2023/07/17 04:34:17;;;;;;;9.40;2.00;;;15.40;82.30;;;;;;5034595;28;20045;-66
2023/07/17 04:36:43;;;;;;;3.25;1.75;;;15.40;99.90;;;;;;5035635;28;20037;-66
2023/07/17 04:39:08;;;;;;;3.85;1.73;;;16.00;1.00;;;;;;5034559;28;20111;-66
2023/07/17 04:41:34;;;;;;;5.40;2.25;;;15.50;99.90;;;;;;5035797;28;20053;-66
2023/07/17 04:43:59;;;;;;;5.38;1.88;;;15.50;99.90;;;;;;5035500;28;20124;-66
2023/07/17 04:46:25;;;;;;;12.60;2.53;;;15.50;42.70;;;;;;5034766;28;20033;-66
2023/07/17 04:48:51;;;;;;;5.30;2.05;;;15.60;12.20;;;;;;5035676;28;20042;-66
2023/07/17 04:51:16;;;;;;;6.80;2.25;;;15.60;99.90;;;;;;5035620;28;20034;-67
2023/07/17 04:53:42;;;;;;;6.47;2.70;;;15.60;99.90;;;;;;5035530;28;20451;-67
2023/07/17 04:56:08;;;;;;;7.28;2.10;;;15.70;79.70;;;;;;5035496;28;20488;-66
2023/07/17 04:58:33;;;;;;;5.10;2.03;;;15.70;99.90;;;;;;5035563;28;20045;-66
2023/07/17 05:01:00;;;;;;;9.32;2.47;;;15.70;78.10;;;;;;5035443;28;20439;-67
2023/07/17 05:03:27;;;;;;;5.05;2.38;;;15.80;1.00;;;;;;5035413;28;20124;-67
2023/07/17 05:05:53;;;;;;;9.05;2.60;;;16.20;99.90;;;;;;5034954;28;20492;-67
2023/07/17 05:08:18;;;;;;;2.92;1.95;;;16.20;89.60;;;;;;5034962;28;20079;-67
2023/07/17 05:10:52;;;;;;;6.97;2.22;;;16.00;99.90;;;;;;5035282;28;20111;-66
2023/07/17 05:13:18;;;;;;;5.50;2.60;;;16.00;1.00;;;;;;5035086;28;20038;-66
2023/07/17 05:15:44;;;;;;;7.32;2.13;;;16.10;1.00;;;;;;5035101;28;20045;-66
2023/07/17 05:18:09;;;;;;;6.32;2.65;;;16.10;1.00;;;;;;5035117;28;20068;-66
2023/07/17 05:20:35;;;;;;;8.20;2.40;;;16.10;1.00;;;;;;5034747;28;20469;-65
2023/07/17 05:23:00;;;;;;;10.30;2.33;;;16.20;99.90;;;;;;5035070;28;20036;-66
2023/07/17 05:25:26;;;;;;;6.60;2.17;;;16.20;1.00;;;;;;5033311;28;20049;-66
2023/07/17 05:27:51;;;;;;;5.65;2.15;;;16.30;99.90;;;;;;5034799;28;20041;-66
2023/07/17 05:30:17;;;;;;;5.30;2.08;;;16.30;99.90;;;;;;5034864;28;20037;-66
2023/07/17 05:32:43;;;;;;;6.30;2.08;;;16.30;99.90;;;;;;5034909;28;20041;-66
2023/07/17 05:35:08;;;;;;;6.32;1.90;;;16.40;1.00;;;;;;5034847;28;20041;-66
2023/07/17 05:37:34;;;;;;;7.43;2.42;;;16.50;1.00;;;;;;5034840;28;20500;-70
2023/07/17 05:40:00;;;;;;;6.57;2.17;;;17.70;99.90;;;;;;5034426;28;20384;-67
2023/07/17 05:42:25;;;;;;;5.25;2.15;;;16.90;99.90;;;;;;5034293;28;20042;-67
2023/07/17 05:44:51;;;;;;;6.57;2.22;;;17.00;99.90;;;;;;5034586;28;20041;-70
2023/07/17 05:47:17;;;;;;;7.13;1.90;;;;;;;;;;5016526;28;20124;-67
2023/07/17 05:49:42;;;;;;;9.45;2.97;;;17.10;83.00;;;;;;5034648;28;20044;-67
2023/07/17 05:52:08;;;;;;;4.82;1.95;;;17.00;1.00;;;;;;5034238;28;20050;-67
2023/07/17 05:54:33;;;;;;;3.85;1.98;;;17.10;99.90;;;;;;5032977;28;20397;-67
2023/07/17 05:56:59;;;;;;;5.15;2.20;;;17.20;99.90;;;;;;5034092;28;20099;-67
2023/07/17 05:59:25;;;;;;;8.38;2.35;;;17.30;99.90;;;;;;5034003;28;20046;-67
2023/07/17 06:01:50;;;;;;;6.50;2.15;;;17.30;20.80;;;;;;5034095;28;20072;-69
2023/07/17 06:04:16;;;;;;;5.70;2.58;;;17.30;1.00;;;;;;5033763;28;20385;-66
2023/07/17 06:06:41;;;;;;;5.82;2.80;;;17.30;99.90;;;;;;5034194;28;20046;-67
2023/07/17 06:09:07;;;;;;;5.78;2.65;;;17.20;99.90;;;;;;5034156;28;20404;-68
2023/07/17 06:11:33;;;;;;;7.70;2.13;;;17.20;99.90;;;;;;5032574;28;20534;-67
2023/07/17 06:13:58;;;;;;;8.68;2.85;;;17.10;99.90;;;;;;5034136;28;20064;-67
2023/07/17 06:16:24;;;;;;;8.00;2.40;;;17.00;99.90;;;;;;5034039;28;20248;-70
2023/07/17 06:18:49;;;;;;;5.80;2.80;;;17.00;99.90;;;;;;5032553;28;20038;-70
2023/07/17 06:21:15;;;;;;;11.13;2.47;;;17.00;99.90;;;;;;5033876;28;20041;-70
2023/07/17 06:23:40;;;;;;;7.53;2.65;;;17.00;99.90;;;;;;5033867;28;20454;-71
2023/07/17 06:26:06;;;;;;;10.55;2.65;;;17.00;99.90;;;;;;5032238;28;20111;-68
2023/07/17 06:28:32;;;;;;;8.05;2.42;;;16.90;99.90;;;;;;5033815;28;20042;-68
2023/07/17 06:30:58;;;;;;;6.50;2.90;;;16.90;99.90;;;;;;5033706;28;20034;-68
2023/07/17 06:33:24;;;;;;;8.45;2.53;;;16.90;14.60;;;;;;5032121;28;20052;-68
2023/07/17 06:35:49;;;;;;;6.75;2.67;;;16.90;1.00;;;;;;5033565;28;20041;-68
2023/07/17 06:38:15;;;;;;;7.75;3.28;;;17.00;1.00;;;;;;5033599;28;20041;-68
2023/07/17 06:40:41;;;;;;;5.30;2.33;;;17.10;1.00;;;;;;5033572;28;20106;-68
2023/07/17 06:43:06;;;;;;;7.97;2.38;;;17.30;99.90;;;;;;5033515;28;20080;-68
2023/07/17 06:45:34;;;;;;;6.78;2.97;;;17.40;99.90;;;;;;5033506;28;20043;-68
2023/07/17 06:47:59;;;;;;;5.63;2.55;;;17.30;99.90;;;;;;5032192;28;20481;-68
2023/07/17 06:50:25;;;;;;;5.80;2.47;;;18.20;99.90;;;;;;5033102;28;20087;-68
2023/07/17 06:52:51;;;;;;;9.07;2.80;;;17.50;99.90;;;;;;5031850;28;20045;-68
2023/07/17 06:55:16;;;;;;;6.50;3.15;;;18.40;13.70;;;;;;5031812;28;20488;-68
2023/07/17 06:57:42;;;;;;;6.15;2.58;;;17.60;1.00;;;;;;5033281;28;20116;-68
2023/07/17 07:00:08;;;;;;;5.80;2.85;;;18.40;1.00;;;;;;5033158;28;20037;-68
2023/07/17 07:02:35;;;;;;;8.95;3.45;;;17.80;1.00;;;;;;5033212;28;20460;-68
2023/07/17 07:05:01;;;;;;;8.68;3.78;;;17.90;1.00;;;;;;5032720;28;20054;-70
2023/07/17 07:07:26;;;;;;;9.30;3.35;;;18.10;99.90;;;;;;5032903;28;20509;-69
2023/07/17 07:09:52;;;;;;;11.15;3.22;;;18.00;99.90;;;;;;5032336;28;20041;-69
2023/07/17 07:12:18;;;;;;;7.65;3.00;;;18.10;99.90;;;;;;5031908;28;20048;-69
2023/07/17 07:14:43;;;;;;;11.63;2.90;;;18.70;99.90;;;;;;5031567;28;20033;-69
2023/07/17 07:17:09;;;;;;;11.25;3.35;;;18.30;99.90;;;;;;5032701;28;20500;-73
2023/07/17 07:19:35;;;;;;;9.73;3.35;;;18.40;99.90;;;;;;5032688;28;20128;-71
2023/07/17 07:22:00;;;;;;;5.22;2.85;;;18.70;99.90;;;;;;5031417;28;20056;-71
2023/07/17 07:24:26;;;;;;;5.15;3.13;;;18.50;99.90;;;;;;5031691;28;20485;-70
2023/07/17 07:26:52;;;;;;;5.28;3.00;;;18.60;99.90;;;;;;5031737;28;20051;-71
2023/07/17 07:29:17;;;;;;;10.32;3.35;;;18.80;99.90;;;;;;5032825;28;20045;-71
2023/07/17 07:31:43;;;;;;;8.20;3.17;;;18.70;99.90;;;;;;5032935;28;20105;-79
2023/07/17 07:34:09;;;;;;;9.10;2.90;;;18.90;99.90;;;;;;5031340;28;20037;-72
2023/07/17 07:36:34;;;;;;;6.72;3.30;;;19.30;99.90;;;;;;5014866;28;20053;-69
2023/07/17 07:39:00;;;;;;;7.57;3.35;;;19.10;99.90;;;;;;5032742;28;20064;-70
2023/07/17 07:41:25;;;;;;;8.48;3.05;;;19.10;99.90;;;;;;5032863;28;20484;-69
2023/07/17 07:43:51;;;;;;;12.05;3.38;;;19.20;99.90;;;;;;5032850;28;20085;-69
2023/07/17 07:46:17;;;;;;;10.02;3.55;;;18.80;99.90;;;;;;5032414;28;20041;-69
2023/07/17 07:48:42;;;;;;;8.65;3.90;;;18.90;99.90;;;;;;5032556;28;20042;-69
2023/07/17 07:51:08;;;;;;;8.20;3.08;;;18.80;99.90;;;;;;5032635;28;20469;-70
2023/07/17 07:53:33;;;;;;;8.25;3.00;;;18.80;99.90;;;;;;5032525;28;20042;-69
2023/07/17 07:56:00;;;;;;;6.38;3.28;;;18.90;99.90;;;;;;5032404;28;20382;-69
2023/07/17 07:58:26;;;;;;;6.13;3.13;;;18.90;99.90;;;;;;5032367;28;20116;-69
2023/07/17 08:00:53;;;;;;;5.07;2.65;;;19.10;99.90;;;;;;5032613;28;20112;-69
2023/07/17 08:03:18;;;;;;;8.13;2.97;;;19.30;99.90;;;;;;5032627;28;20037;-70
2023/07/17 08:05:44;;;;;;;4.95;2.90;;;20.20;99.90;;;;;;5032068;28;20057;-75
2023/07/17 08:08:10;;;;;;;9.00;3.20;;;19.40;99.90;;;;;;5031236;28;20041;-70
2023/07/17 08:10:38;;;;;;;7.47;3.55;;;19.30;99.90;;;;;;5032543;28;20550;-69
2023/07/17 08:13:04;;;;;;;8.02;3.00;;;19.30;99.90;;;;;;5032588;28;20034;-68
2023/07/17 08:15:30;;;;;;;8.23;2.80;;;19.00;99.90;;;;;;5032588;28;20037;-68
2023/07/17 08:17:56;;;;;;;7.03;3.20;;;19.70;99.90;;;;;;5032212;28;20042;-68
2023/07/17 08:20:21;;;;;;;6.55;2.90;;;19.50;99.90;;;;;;5032483;28;20041;-68
2023/07/17 08:22:50;;;;;;;10.27;3.00;;;19.20;99.90;;;;;;5034051;28;20038;-68
2023/07/17 08:25:15;;;;;;;6.93;2.70;;;19.40;99.90;;;;;;5036059;28;20051;-68
2023/07/17 08:27:41;;;;;;;4.90;2.50;;;19.30;99.90;;;;;;5036093;28;20037;-73
2023/07/17 08:30:07;;;;;;;6.25;2.70;;;19.00;99.90;;;;;;5034774;28;20034;-69
2023/07/17 08:32:33;;;;;;;9.60;3.08;;;18.90;99.90;;;;;;5036059;28;20037;-69
2023/07/17 08:34:58;;;;;;;5.82;3.00;;;18.80;99.90;;;;;;5035914;28;20041;-70
2023/07/17 08:37:24;;;;;;;5.97;2.78;;;19.30;99.90;;;;;;5035868;28;20552;-71
2023/07/17 08:39:49;;;;;;;7.40;3.00;;;18.50;99.90;;;;;;5034363;28;20511;-70
2023/07/17 08:42:15;;;;;;;6.85;2.83;;;18.00;99.90;;;;;;5034489;28;20049;-66
2023/07/17 08:44:40;;;;;;;6.35;2.33;;;17.90;99.90;;;;;;5035417;28;20499;-65
2023/07/17 08:47:08;;;;;;;8.45;2.60;;;17.60;99.90;;;;;;5035679;28;20049;-65
2023/07/17 08:49:35;;;;;;;4.63;2.35;;;17.80;59.80;;;;;;5035731;28;20130;-65
2023/07/17 08:52:03;;;;;;;5.47;2.10;;;17.00;34.90;;;;;;5035690;28;20042;-66
2023/07/17 08:54:29;;;;;;;7.68;3.40;;;17.00;99.90;;;;;;5035511;28;20044;-64
2023/07/17 08:56:57;;;;;;;8.52;3.50;;;17.00;99.90;;;;;;5035538;28;20451;-66
2023/07/17 08:59:23;;;;;;;6.07;2.85;;;17.10;66.10;;;;;;5034207;28;20548;-65
2023/07/17 09:01:49;;;;;;;7.05;3.17;;;17.20;1.00;;;;;;5035455;28;20041;-64
2023/07/17 09:04:16;;;;;;;7.90;3.05;;;17.20;99.90;;;;;;5034922;28;20096;-65
2023/07/17 09:06:41;;;;;;;7.78;3.70;;;17.10;99.90;;;;;;5035258;28;20053;-64
2023/07/17 09:09:09;;;;;;;4.13;2.78;;;17.70;1.00;;;;;;5035230;28;20033;-64
2023/07/17 09:11:35;;;;;;;7.63;3.42;;;17.30;99.90;;;;;;5034943;28;20122;-64
2023/07/17 09:14:01;;;;;;;6.95;3.17;;;17.30;99.90;;;;;;5035296;28;20065;-64
2023/07/17 09:16:26;;;;;;;4.10;2.75;;;18.50;99.90;;;;;;5034900;28;20119;-64
2023/07/17 09:18:53;;;;;;;11.85;3.85;;;17.40;99.90;;;;;;5034835;28;20052;-64
2023/07/17 09:21:21;;;;;;;6.90;3.30;;;17.60;99.90;;;;;;5035117;28;20033;-63
2023/07/17 09:23:52;;;;;;;7.60;3.17;;;17.60;99.90;;;;;;5035127;28;20041;-64
2023/07/17 09:26:19;;;;;;;12.02;3.78;;;17.60;99.90;;;;;;5034728;28;20052;-64
2023/07/17 09:28:53;;;;;;;8.07;3.60;;;17.70;99.90;;;;;;5035049;28;20037;-64
2023/07/17 09:31:30;;;;;;;10.63;3.30;;;17.70;99.90;;;;;;5035019;28;20041;-64
2023/07/17 09:34:00;;;;;;;7.78;3.42;;;17.90;99.90;;;;;;5033996;28;20373;-64
2023/07/17 09:36:26;;;;;;;10.38;3.33;;;17.90;99.90;;;;;;5034893;28;20061;-69
2023/07/17 09:38:59;;;;;;;7.50;3.25;;;18.10;1.00;;;;;;5034572;28;20033;-69
2023/07/17 09:41:26;;;;;;;6.57;3.08;;;18.00;99.90;;;;;;5034756;28;20053;-69
2023/07/17 09:44:00;;;;;;;10.27;3.17;;;18.20;18.50;;;;;;5034425;28;20045;-69
2023/07/17 09:46:30;;;;;;;5.97;2.90;;;18.20;99.90;;;;;;5034315;28;20128;-69
2023/07/17 09:48:56;;;;;;;7.20;3.45;;;18.60;99.90;;;;;;5034648;28;20084;-68
2023/07/17 09:51:23;;;;;;;6.60;2.90;;;18.10;1.00;;;;;;5016554;28;20099;-69
2023/07/17 09:53:49;;;;;;;7.43;3.33;;;18.00;99.90;;;;;;5033346;28;20041;-69
2023/07/17 09:56:18;;;;;;;8.50;3.10;;;18.90;99.90;;;;;;5034430;28;20090;-68
2023/07/17 09:58:51;;;;;;;4.55;2.30;;;18.30;99.90;;;;;;5034563;28;20094;-69
2023/07/17 10:01:18;;;;;;;4.32;2.63;;;18.20;1.00;;;;;;5034053;28;20517;-69
2023/07/17 10:03:49;;;;;;;4.28;2.28;;;18.80;99.90;;;;;;5034293;28;20447;-74
2023/07/17 10:06:15;;;;;;;4.63;2.35;;;;;;;;;;5032816;28;20083;-72
2023/07/17 10:08:49;;;;;;;6.20;2.53;;;19.20;99.90;;;;;;5032625;28;20033;-72
2023/07/17 10:11:18;;;;;;;7.35;2.10;;;19.30;31.70;;;;;;5016109;28;20061;-75
2023/07/17 10:13:44;;;;;;;6.35;2.40;;;;;;;;;;5032563;28;20451;-71
2023/07/17 10:16:13;;;;;;;6.22;2.35;;;19.60;99.90;;;;;;5032520;28;20049;-68
2023/07/17 10:18:50;;;;;;;3.60;1.95;;;19.70;99.90;;;;;;5034044;28;20049;-68
2023/07/17 10:21:17;;;;;;;3.65;1.80;;;19.80;99.90;;;;;;5033881;28;20041;-68
2023/07/17 10:23:44;;;;;;;6.05;1.77;;;19.80;99.90;;;;;;5033713;28;20508;-65
2023/07/17 10:26:12;;;;;;;5.75;1.83;;;19.90;99.90;;;;;;5033541;28;20175;-65
2023/07/17 10:28:39;;;;;;;4.32;1.73;;;19.90;99.90;;;;;;5033849;28;20044;-65
2023/07/17 10:31:19;;;;;;;3.08;1.85;;;20.80;99.90;;;;;;5049140;28;20420;-65
2023/07/17 10:33:52;;;;;;;3.78;2.30;;;20.10;99.90;;;;;;5033799;28;20049;-65
2023/07/17 10:36:35;;;;;;;4.20;1.65;;;20.10;99.90;;;;;;5033700;28;20041;-66
2023/07/17 10:39:04;;;;;;;6.13;1.63;;;20.00;99.90;;;;;;5033518;28;20119;-65
2023/07/17 10:41:30;;;;;;;4.18;1.80;;;19.90;99.90;;;;;;5032123;28;20038;-65
2023/07/17 10:44:07;;;;;;;6.63;2.05;;;19.90;99.90;;;;;;5033547;28;20029;-65
2023/07/17 10:46:34;;;;;;;6.80;1.90;;;19.80;99.90;;;;;;5033500;28;20052;-65
2023/07/17 10:49:09;;;;;;;4.78;2.08;;;19.90;99.90;;;;;;5033523;28;20446;-65
2023/07/17 10:51:41;;;;;;;3.90;2.15;;;20.30;99.90;;;;;;5033116;28;20076;-65
2023/07/17 10:54:07;;;;;;;3.70;1.90;;;19.70;99.90;;;;;;5033348;28;20038;-65
2023/07/17 10:56:32;;;;;;;4.65;1.80;;;19.70;99.50;;;;;;5033306;28;20068;-65
2023/07/17 10:58:59;;;;;;;7.25;2.08;;;19.80;99.90;;;;;;5033075;28;20543;-65
2023/07/17 11:01:25;;;;;;;5.85;1.95;;;19.90;96.50;;;;;;5033309;28;20068;-65
2023/07/17 11:03:53;;;;;;;5.18;2.20;;;19.70;94.30;;;;;;5033097;28;20038;-65
2023/07/17 11:06:19;;;;;;;3.25;1.70;;;19.70;82.40;;;;;;5033169;28;20049;-65
2023/07/17 11:08:49;;;;;;;5.30;1.50;;;19.80;88.50;;;;;;5033235;28;20504;-65
2023/07/17 11:11:15;;;;;;;4.45;1.80;;;19.80;80.20;;;;;;5033257;28;20057;-65
2023/07/17 11:13:44;;;;;;;5.47;1.73;;;19.80;82.50;;;;;;5032944;28;20044;-67
2023/07/17 11:16:10;;;;;;;6.22;2.05;;;20.50;80.40;;;;;;5033140;28;20045;-65
2023/07/17 11:18:51;;;;;;;6.45;2.13;;;20.40;78.10;;;;;;5033123;28;20049;-64
2023/07/17 11:21:21;;;;;;;4.82;2.05;;;20.10;69.50;;;;;;5033060;28;20045;-68
2023/07/17 11:23:49;;;;;;;5.75;1.95;;;20.40;77.20;;;;;;5031509;28;20080;-65
2023/07/17 11:26:17;;;;;;;4.10;1.67;;;20.50;75.70;;;;;;5032992;28;20373;-64
2023/07/17 11:28:43;;;;;;;5.72;1.40;;;20.50;78.50;;;;;;5033068;28;20053;-65
2023/07/17 11:31:23;;;;;;;3.80;1.75;;;20.60;75.30;;;;;;5032901;28;20037;-64
2023/07/17 11:33:57;;;;;;;5.03;1.80;;;20.40;70.20;;;;;;5033019;28;20045;-65
2023/07/17 11:36:24;;;;;;;5.07;1.85;;;20.30;66.70;;;;;;5047298;28;20042;-64
2023/07/17 11:38:49;;;;;;;3.47;1.85;;;20.20;68.80;;;;;;5032962;28;20041;-65
2023/07/17 11:41:15;;;;;;;8.20;1.92;;;20.00;67.00;;;;;;5032794;28;20037;-65
2023/07/17 11:43:40;;;;;;;5.88;2.00;;;20.30;67.80;;;;;;5032870;28;20534;-65
2023/07/17 11:46:08;;;;;;;3.17;1.95;;;20.10;67.50;;;;;;5032472;28;20484;-65
2023/07/17 11:48:37;;;;;;;3.45;1.63;;;20.10;64.00;;;;;;5032694;28;20040;-65
2023/07/17 11:51:04;;;;;;;6.13;2.10;;;20.10;66.20;;;;;;5032710;28;20125;-64
2023/07/17 11:53:31;;;;;;;2.90;1.50;;;20.30;65.20;;;;;;5032759;28;20041;-65
2023/07/17 11:55:59;;;;;;;1.80;1.15;;;20.00;66.40;;;;;;5032899;28;20488;-65
2023/07/17 11:58:29;;;;;;;4.28;1.48;;;20.50;62.10;;;;;;5036731;28;20132;-64
2023/07/17 12:00:55;;;;;;;5.47;1.67;;;20.50;65.70;;;;;;5036719;28;20073;-65
2023/07/17 12:03:21;;;;;;;3.63;1.75;;;20.90;65.20;;;;;;5036326;28;20050;-65
2023/07/17 12:05:47;;;;;;;2.83;1.60;;;20.60;60.60;;;;;;5036114;28;20049;-65
2023/07/17 12:08:13;;;;;;;5.05;1.70;;;20.10;63.80;;;;;;5036589;28;20033;-65
2023/07/17 12:10:39;;;;;;;3.80;1.33;;;19.90;65.30;;;;;;5036450;28;20033;-65
2023/07/17 12:13:05;;;;;;;7.65;1.65;;;19.90;64.70;;;;;;5036139;28;20041;-65
2023/07/17 12:15:32;;;;;;;5.60;1.60;;;19.80;63.50;;;;;;5036454;28;20090;-65
2023/07/17 12:17:58;;;;;;;3.80;1.83;;;19.70;63.70;;;;;;5034900;28;20045;-65
2023/07/17 12:20:27;;;;;;;3.17;1.25;;;19.60;61.90;;;;;;5036344;28;20065;-64
2023/07/17 12:22:55;;;;;;;6.20;1.60;;;19.70;60.30;;;;;;5036319;28;20528;-65
2023/07/17 12:25:21;;;;;;;3.42;1.42;;;19.80;63.10;;;;;;5034626;28;20048;-65
2023/07/17 12:27:48;;;;;;;5.00;1.63;;;20.10;65.00;;;;;;5036236;28;20041;-64
2023/07/17 12:30:22;;;;;;;3.08;1.20;;;20.30;67.50;;;;;;5035983;28;20045;-65
2023/07/17 12:32:48;;;;;;;3.85;1.60;;;20.50;68.00;;;;;;5036213;28;20040;-65
2023/07/17 12:35:13;;;;;;;4.22;1.63;;;21.20;69.30;;;;;;5036057;28;20045;-64
2023/07/17 12:37:39;;;;;;;5.15;1.75;;;20.40;66.40;;;;;;5034509;28;20508;-64
2023/07/17 12:40:05;;;;;;;4.20;1.80;;;20.40;59.80;;;;;;5035562;28;20039;-64
2023/07/17 12:42:31;;;;;;;3.25;1.52;;;20.20;57.20;;;;;;5035891;28;20045;-64
2023/07/17 12:44:56;;;;;;;3.65;1.67;;;20.20;56.90;;;;;;5035677;28;20125;-64